sensor_id;sensor_type;location;lat;lon;timestamp;temperature;humidity
75262;DHT22;63859;51.064;4.580;2023-08-01T00:02:12;16.90;99.90
75262;DHT22;63859;51.064;4.580;2023-08-01T00:04:38;16.80;99.90
75262;DHT22;63859;51.064;4.580;2023-08-01T00:07:04;16.80;99.90
75262;DHT22;63859;51.064;4.580;2023-08-01T00:09:29;16.80;99.90
75262;DHT22;63859;51.064;4.580;2023-08-01T00:11:55;16.80;99.90
75262;DHT22;63859;51.064;4.580;2023-08-01T00:14:21;16.70;99.90
75262;DHT22;63859;51.064;4.580;2023-08-01T00:16:50;16.60;99.90
75262;DHT22;63859;51.064;4.580;2023-08-01T00:19:15;16.70;99.90
75262;DHT22;63859;51.064;4.580;2023-08-01T00:21:41;16.60;99.90
75262;DHT22;63859;51.064;4.580;2023-08-01T00:24:07;16.60;99.90
75262;DHT22;63859;51.064;4.580;2023-08-01T00:26:33;16.60;99.90
75262;DHT22;63859;51.064;4.580;2023-08-01T00:28:59;16.60;99.90
75262;DHT22;63859;51.064;4.580;2023-08-01T00:31:25;16.60;99.90
75262;DHT22;63859;51.064;4.580;2023-08-01T00:33:50;16.60;99.90
75262;DHT22;63859;51.064;4.580;2023-08-01T00:36:16;16.50;99.90
75262;DHT22;63859;51.064;4.580;2023-08-01T00:38:42;16.50;99.90
75262;DHT22;63859;51.064;4.580;2023-08-01T00:41:09;16.50;99.90
75262;DHT22;63859;51.064;4.580;2023-08-01T00:43:35;16.50;99.90
75262;DHT22;63859;51.064;4.580;2023-08-01T00:46:03;16.40;99.90
75262;DHT22;63859;51.064;4.580;2023-08-01T00:48:29;16.40;99.90
75262;DHT22;63859;51.064;4.580;2023-08-01T00:50:56;16.40;99.90
75262;DHT22;63859;51.064;4.580;2023-08-01T00:53:23;16.30;99.90
75262;DHT22;63859;51.064;4.580;2023-08-01T00:55:52;16.30;99.90
75262;DHT22;63859;51.064;4.580;2023-08-01T00:58:19;16.30;99.90
75262;DHT22;63859;51.064;4.580;2023-08-01T01:00:46;16.30;99.90
75262;DHT22;63859;51.064;4.580;2023-08-01T01:03:12;16.30;99.90
75262;DHT22;63859;51.064;4.580;2023-08-01T01:05:42;16.30;99.90
75262;DHT22;63859;51.064;4.580;2023-08-01T01:08:08;16.20;99.90
75262;DHT22;63859;51.064;4.580;2023-08-01T01:10:34;16.20;99.90
75262;DHT22;63859;51.064;4.580;2023-08-01T01:13:00;16.20;99.90
75262;DHT22;63859;51.064;4.580;2023-08-01T01:15:25;16.20;99.90
75262;DHT22;63859;51.064;4.580;2023-08-01T01:17:52;16.20;99.90
75262;DHT22;63859;51.064;4.580;2023-08-01T01:20:23;16.10;99.90
75262;DHT22;63859;51.064;4.580;2023-08-01T01:22:52;16.10;99.90
75262;DHT22;63859;51.064;4.580;2023-08-01T01:25:20;16.10;99.90
75262;DHT22;63859;51.064;4.580;2023-08-01T01:27:49;16.10;99.90
75262;DHT22;63859;51.064;4.580;2023-08-01T01:30:15;16.10;99.90
75262;DHT22;63859;51.064;4.580;2023-08-01T01:32:41;16.00;99.90
75262;DHT22;63859;51.064;4.580;2023-08-01T01:35:07;16.00;99.90
75262;DHT22;63859;51.064;4.580;2023-08-01T01:37:33;16.00;99.90
75262;DHT22;63859;51.064;4.580;2023-08-01T01:39:59;16.00;99.90
75262;DHT22;63859;51.064;4.580;2023-08-01T01:42:24;16.00;99.90
75262;DHT22;63859;51.064;4.580;2023-08-01T01:44:50;15.90;99.90
75262;DHT22;63859;51.064;4.580;2023-08-01T01:47:16;15.90;99.90
75262;DHT22;63859;51.064;4.580;2023-08-01T01:49:42;15.90;99.90
75262;DHT22;63859;51.064;4.580;2023-08-01T01:52:08;15.80;99.90
75262;DHT22;63859;51.064;4.580;2023-08-01T01:54:33;15.90;99.90
75262;DHT22;63859;51.064;4.580;2023-08-01T01:56:59;15.90;99.90
75262;DHT22;63859;51.064;4.580;2023-08-01T01:59:24;15.90;99.90
75262;DHT22;63859;51.064;4.580;2023-08-01T02:01:50;15.90;99.90
75262;DHT22;63859;51.064;4.580;2023-08-01T02:04:16;15.90;99.90
75262;DHT22;63859;51.064;4.580;2023-08-01T02:06:41;15.90;99.90
75262;DHT22;63859;51.064;4.580;2023-08-01T02:09:07;15.90;99.90
75262;DHT22;63859;51.064;4.580;2023-08-01T02:11:33;15.90;99.90
75262;DHT22;63859;51.064;4.580;2023-08-01T02:13:58;15.90;99.90
75262;DHT22;63859;51.064;4.580;2023-08-01T02:16:24;15.90;99.90
75262;DHT22;63859;51.064;4.580;2023-08-01T02:18:49;15.90;99.90
75262;DHT22;63859;51.064;4.580;2023-08-01T02:21:15;15.90;99.90
75262;DHT22;63859;51.064;4.580;2023-08-01T02:23:41;15.90;99.90
75262;DHT22;63859;51.064;4.580;2023-08-01T02:26:06;15.90;99.90
75262;DHT22;63859;51.064;4.580;2023-08-01T02:28:33;15.90;99.90
75262;DHT22;63859;51.064;4.580;2023-08-01T02:30:59;15.90;99.90
75262;DHT22;63859;51.064;4.580;2023-08-01T02:33:25;15.90;99.90
75262;DHT22;63859;51.064;4.580;2023-08-01T02:35:50;15.90;99.90
75262;DHT22;63859;51.064;4.580;2023-08-01T02:38:16;15.90;99.90
75262;DHT22;63859;51.064;4.580;2023-08-01T02:40:41;15.90;99.90
75262;DHT22;63859;51.064;4.580;2023-08-01T02:43:07;15.90;99.90
75262;DHT22;63859;51.064;4.580;2023-08-01T02:45:33;15.80;99.90
75262;DHT22;63859;51.064;4.580;2023-08-01T02:47:58;15.80;99.90
75262;DHT22;63859;51.064;4.580;2023-08-01T02:50:24;15.90;99.90
75262;DHT22;63859;51.064;4.580;2023-08-01T02:52:50;15.80;99.90
75262;DHT22;63859;51.064;4.580;2023-08-01T02:55:16;15.90;99.90
75262;DHT22;63859;51.064;4.580;2023-08-01T02:57:41;15.80;99.90
75262;DHT22;63859;51.064;4.580;2023-08-01T03:00:07;15.80;99.90
75262;DHT22;63859;51.064;4.580;2023-08-01T03:02:37;15.80;99.90
75262;DHT22;63859;51.064;4.580;2023-08-01T03:05:05;15.80;99.90
75262;DHT22;63859;51.064;4.580;2023-08-01T03:07:31;15.80;99.90
75262;DHT22;63859;51.064;4.580;2023-08-01T03:09:57;15.80;99.90
75262;DHT22;63859;51.064;4.580;2023-08-01T03:12:22;15.80;99.90
75262;DHT22;63859;51.064;4.580;2023-08-01T03:14:48;15.80;99.90
75262;DHT22;63859;51.064;4.580;2023-08-01T03:17:14;15.80;99.90
75262;DHT22;63859;51.064;4.580;2023-08-01T03:19:39;15.80;99.90
75262;DHT22;63859;51.064;4.580;2023-08-01T03:22:05;15.80;99.90
75262;DHT22;63859;51.064;4.580;2023-08-01T03:24:30;15.80;99.90
75262;DHT22;63859;51.064;4.580;2023-08-01T03:26:56;15.90;99.90
75262;DHT22;63859;51.064;4.580;2023-08-01T03:29:22;15.80;99.90
75262;DHT22;63859;51.064;4.580;2023-08-01T03:31:48;15.80;99.90
75262;DHT22;63859;51.064;4.580;2023-08-01T03:34:13;15.80;99.90
75262;DHT22;63859;51.064;4.580;2023-08-01T03:36:39;15.80;99.90
75262;DHT22;63859;51.064;4.580;2023-08-01T03:39:05;15.80;99.90
75262;DHT22;63859;51.064;4.580;2023-08-01T03:41:31;15.80;99.90
75262;DHT22;63859;51.064;4.580;2023-08-01T03:43:57;15.80;99.90
75262;DHT22;63859;51.064;4.580;2023-08-01T03:46:23;15.80;99.90
75262;DHT22;63859;51.064;4.580;2023-08-01T03:48:49;15.80;99.90
75262;DHT22;63859;51.064;4.580;2023-08-01T03:51:14;15.80;99.90
75262;DHT22;63859;51.064;4.580;2023-08-01T03:53:41;15.80;99.90
75262;DHT22;63859;51.064;4.580;2023-08-01T03:56:07;15.80;99.90
75262;DHT22;63859;51.064;4.580;2023-08-01T03:58:33;15.80;99.90
75262;DHT22;63859;51.064;4.580;2023-08-01T04:00:58;15.80;99.90
75262;DHT22;63859;51.064;4.580;2023-08-01T04:03:24;15.80;99.90
75262;DHT22;63859;51.064;4.580;2023-08-01T04:05:50;15.80;99.90
75262;DHT22;63859;51.064;4.580;2023-08-01T04:08:15;15.80;99.90
75262;DHT22;63859;51.064;4.580;2023-08-01T04:10:41;15.80;99.90
75262;DHT22;63859;51.064;4.580;2023-08-01T04:13:06;15.80;99.90
75262;DHT22;63859;51.064;4.580;2023-08-01T04:15:32;15.80;99.90
75262;DHT22;63859;51.064;4.580;2023-08-01T04:17:58;15.80;99.90
75262;DHT22;63859;51.064;4.580;2023-08-01T04:20:23;15.80;99.90
75262;DHT22;63859;51.064;4.580;2023-08-01T04:22:49;15.80;99.90
75262;DHT22;63859;51.064;4.580;2023-08-01T04:25:15;15.80;99.90
75262;DHT22;63859;51.064;4.580;2023-08-01T04:27:40;15.80;99.90
75262;DHT22;63859;51.064;4.580;2023-08-01T04:30:06;15.80;99.90
75262;DHT22;63859;51.064;4.580;2023-08-01T04:32:32;15.70;99.90
75262;DHT22;63859;51.064;4.580;2023-08-01T04:34:58;15.70;99.90
75262;DHT22;63859;51.064;4.580;2023-08-01T04:37:23;15.80;99.90
75262;DHT22;63859;51.064;4.580;2023-08-01T04:39:51;15.70;99.90
75262;DHT22;63859;51.064;4.580;2023-08-01T04:42:20;15.70;99.90
75262;DHT22;63859;51.064;4.580;2023-08-01T04:44:45;15.70;99.90
75262;DHT22;63859;51.064;4.580;2023-08-01T04:47:11;15.80;99.90
75262;DHT22;63859;51.064;4.580;2023-08-01T04:49:36;15.80;99.90
75262;DHT22;63859;51.064;4.580;2023-08-01T04:52:02;15.80;99.90
75262;DHT22;63859;51.064;4.580;2023-08-01T04:54:28;15.80;99.90
75262;DHT22;63859;51.064;4.580;2023-08-01T04:56:54;15.80;99.90
75262;DHT22;63859;51.064;4.580;2023-08-01T04:59:19;15.80;99.90
75262;DHT22;63859;51.064;4.580;2023-08-01T05:01:45;15.80;99.90
75262;DHT22;63859;51.064;4.580;2023-08-01T05:04:11;15.80;99.90
75262;DHT22;63859;51.064;4.580;2023-08-01T05:06:36;15.80;99.90
75262;DHT22;63859;51.064;4.580;2023-08-01T05:09:02;15.90;99.90
75262;DHT22;63859;51.064;4.580;2023-08-01T05:11:28;15.80;99.90
75262;DHT22;63859;51.064;4.580;2023-08-01T05:13:53;15.80;99.90
75262;DHT22;63859;51.064;4.580;2023-08-01T05:16:19;15.90;99.90
75262;DHT22;63859;51.064;4.580;2023-08-01T05:18:45;15.90;99.90
75262;DHT22;63859;51.064;4.580;2023-08-01T05:21:10;15.90;99.90
75262;DHT22;63859;51.064;4.580;2023-08-01T05:23:36;15.90;99.90
75262;DHT22;63859;51.064;4.580;2023-08-01T05:26:02;15.90;99.90
75262;DHT22;63859;51.064;4.580;2023-08-01T05:28:28;15.90;99.90
75262;DHT22;63859;51.064;4.580;2023-08-01T05:30:53;15.90;99.90
75262;DHT22;63859;51.064;4.580;2023-08-01T05:33:19;15.90;99.90
75262;DHT22;63859;51.064;4.580;2023-08-01T05:35:45;15.90;99.90
75262;DHT22;63859;51.064;4.580;2023-08-01T05:38:10;16.00;99.90
75262;DHT22;63859;51.064;4.580;2023-08-01T05:40:36;16.00;99.90
75262;DHT22;63859;51.064;4.580;2023-08-01T05:43:02;16.00;99.90
75262;DHT22;63859;51.064;4.580;2023-08-01T05:45:29;16.00;99.90
75262;DHT22;63859;51.064;4.580;2023-08-01T05:47:55;16.00;99.90
75262;DHT22;63859;51.064;4.580;2023-08-01T05:50:20;16.00;99.90
75262;DHT22;63859;51.064;4.580;2023-08-01T05:52:46;16.00;99.90
75262;DHT22;63859;51.064;4.580;2023-08-01T05:55:12;16.10;99.90
75262;DHT22;63859;51.064;4.580;2023-08-01T05:57:37;16.10;99.90
75262;DHT22;63859;51.064;4.580;2023-08-01T06:00:03;16.20;99.90
75262;DHT22;63859;51.064;4.580;2023-08-01T06:02:29;16.20;99.90
75262;DHT22;63859;51.064;4.580;2023-08-01T06:04:54;16.20;99.90
75262;DHT22;63859;51.064;4.580;2023-08-01T06:07:20;16.20;99.90
75262;DHT22;63859;51.064;4.580;2023-08-01T06:09:49;16.30;99.90
75262;DHT22;63859;51.064;4.580;2023-08-01T06:12:17;16.30;99.90
75262;DHT22;63859;51.064;4.580;2023-08-01T06:14:43;16.30;99.90
75262;DHT22;63859;51.064;4.580;2023-08-01T06:17:09;16.30;99.90
75262;DHT22;63859;51.064;4.580;2023-08-01T06:19:34;16.30;99.90
75262;DHT22;63859;51.064;4.580;2023-08-01T06:22:00;16.40;99.90
75262;DHT22;63859;51.064;4.580;2023-08-01T06:24:26;16.40;99.90
75262;DHT22;63859;51.064;4.580;2023-08-01T06:26:51;16.40;99.90
75262;DHT22;63859;51.064;4.580;2023-08-01T06:29:17;16.40;99.90
75262;DHT22;63859;51.064;4.580;2023-08-01T06:31:43;16.40;99.90
75262;DHT22;63859;51.064;4.580;2023-08-01T06:34:08;16.40;99.90
75262;DHT22;63859;51.064;4.580;2023-08-01T06:36:34;16.50;99.90
75262;DHT22;63859;51.064;4.580;2023-08-01T06:39:00;16.50;99.90
75262;DHT22;63859;51.064;4.580;2023-08-01T06:41:26;16.50;99.90
75262;DHT22;63859;51.064;4.580;2023-08-01T06:43:52;16.60;99.90
75262;DHT22;63859;51.064;4.580;2023-08-01T06:46:17;16.70;99.90
75262;DHT22;63859;51.064;4.580;2023-08-01T06:48:43;16.70;99.90
75262;DHT22;63859;51.064;4.580;2023-08-01T06:51:09;16.80;99.90
75262;DHT22;63859;51.064;4.580;2023-08-01T06:53:34;16.80;99.90
75262;DHT22;63859;51.064;4.580;2023-08-01T06:56:00;16.90;99.90
75262;DHT22;63859;51.064;4.580;2023-08-01T06:58:27;16.90;99.90
75262;DHT22;63859;51.064;4.580;2023-08-01T07:00:52;16.90;99.90
75262;DHT22;63859;51.064;4.580;2023-08-01T07:03:18;17.00;99.90
75262;DHT22;63859;51.064;4.580;2023-08-01T07:05:44;17.00;99.90
75262;DHT22;63859;51.064;4.580;2023-08-01T07:08:09;17.00;99.90
75262;DHT22;63859;51.064;4.580;2023-08-01T07:10:35;17.00;99.90
75262;DHT22;63859;51.064;4.580;2023-08-01T07:13:02;16.90;99.90
75262;DHT22;63859;51.064;4.580;2023-08-01T07:15:30;16.90;99.90
75262;DHT22;63859;51.064;4.580;2023-08-01T07:17:56;16.90;99.90
75262;DHT22;63859;51.064;4.580;2023-08-01T07:20:22;16.90;99.90
75262;DHT22;63859;51.064;4.580;2023-08-01T07:22:48;16.90;99.90
75262;DHT22;63859;51.064;4.580;2023-08-01T07:25:14;16.90;99.90
75262;DHT22;63859;51.064;4.580;2023-08-01T07:27:40;16.90;99.90
75262;DHT22;63859;51.064;4.580;2023-08-01T07:30:07;17.00;99.90
75262;DHT22;63859;51.064;4.580;2023-08-01T07:32:32;17.00;99.90
75262;DHT22;63859;51.064;4.580;2023-08-01T07:34:58;17.20;99.90
75262;DHT22;63859;51.064;4.580;2023-08-01T07:37:24;17.10;99.90
75262;DHT22;63859;51.064;4.580;2023-08-01T07:39:50;17.20;99.90
75262;DHT22;63859;51.064;4.580;2023-08-01T07:42:16;17.20;99.90
75262;DHT22;63859;51.064;4.580;2023-08-01T07:44:41;17.20;99.90
75262;DHT22;63859;51.064;4.580;2023-08-01T07:47:07;17.20;99.90
75262;DHT22;63859;51.064;4.580;2023-08-01T07:49:33;17.20;99.90
75262;DHT22;63859;51.064;4.580;2023-08-01T07:51:59;17.20;99.90
75262;DHT22;63859;51.064;4.580;2023-08-01T07:54:24;17.20;99.90
75262;DHT22;63859;51.064;4.580;2023-08-01T07:56:50;17.30;99.90
75262;DHT22;63859;51.064;4.580;2023-08-01T07:59:16;17.30;99.90
75262;DHT22;63859;51.064;4.580;2023-08-01T08:01:41;17.40;99.90
75262;DHT22;63859;51.064;4.580;2023-08-01T08:04:07;17.50;99.90
75262;DHT22;63859;51.064;4.580;2023-08-01T08:06:33;17.60;99.90
75262;DHT22;63859;51.064;4.580;2023-08-01T08:08:59;17.70;99.90
75262;DHT22;63859;51.064;4.580;2023-08-01T08:11:24;17.80;99.90
75262;DHT22;63859;51.064;4.580;2023-08-01T08:13:50;17.90;99.90
75262;DHT22;63859;51.064;4.580;2023-08-01T08:16:15;17.90;99.90
75262;DHT22;63859;51.064;4.580;2023-08-01T08:18:41;17.90;99.90
75262;DHT22;63859;51.064;4.580;2023-08-01T08:21:07;17.90;99.90
75262;DHT22;63859;51.064;4.580;2023-08-01T08:23:33;17.90;99.90
75262;DHT22;63859;51.064;4.580;2023-08-01T08:25:58;17.90;99.90
75262;DHT22;63859;51.064;4.580;2023-08-01T08:28:29;18.10;99.90
75262;DHT22;63859;51.064;4.580;2023-08-01T08:30:55;18.20;99.90
75262;DHT22;63859;51.064;4.580;2023-08-01T08:33:21;18.30;99.90
75262;DHT22;63859;51.064;4.580;2023-08-01T08:35:47;18.30;99.90
75262;DHT22;63859;51.064;4.580;2023-08-01T08:38:13;18.30;99.90
75262;DHT22;63859;51.064;4.580;2023-08-01T08:41:08;18.40;99.90
75262;DHT22;63859;51.064;4.580;2023-08-01T08:43:34;18.50;99.90
75262;DHT22;63859;51.064;4.580;2023-08-01T08:46:01;18.40;99.90
75262;DHT22;63859;51.064;4.580;2023-08-01T08:48:28;18.40;99.90
75262;DHT22;63859;51.064;4.580;2023-08-01T08:51:00;18.30;99.90
75262;DHT22;63859;51.064;4.580;2023-08-01T08:53:26;18.30;99.90
75262;DHT22;63859;51.064;4.580;2023-08-01T08:55:52;18.40;99.90
75262;DHT22;63859;51.064;4.580;2023-08-01T08:58:18;18.50;99.90
75262;DHT22;63859;51.064;4.580;2023-08-01T09:00:44;18.50;99.90
75262;DHT22;63859;51.064;4.580;2023-08-01T09:03:10;18.60;99.90
75262;DHT22;63859;51.064;4.580;2023-08-01T09:05:50;18.70;99.90
75262;DHT22;63859;51.064;4.580;2023-08-01T09:08:18;18.70;99.90
75262;DHT22;63859;51.064;4.580;2023-08-01T09:10:46;18.80;99.90
75262;DHT22;63859;51.064;4.580;2023-08-01T09:13:12;18.90;99.90
75262;DHT22;63859;51.064;4.580;2023-08-01T09:15:41;18.90;99.90
75262;DHT22;63859;51.064;4.580;2023-08-01T09:18:08;19.10;99.90
75262;DHT22;63859;51.064;4.580;2023-08-01T09:20:48;19.20;99.90
75262;DHT22;63859;51.064;4.580;2023-08-01T09:23:15;19.20;99.90
75262;DHT22;63859;51.064;4.580;2023-08-01T09:25:43;19.30;99.90
75262;DHT22;63859;51.064;4.580;2023-08-01T09:28:20;19.30;99.90
75262;DHT22;63859;51.064;4.580;2023-08-01T09:30:47;19.40;99.90
75262;DHT22;63859;51.064;4.580;2023-08-01T09:33:13;19.30;99.90
75262;DHT22;63859;51.064;4.580;2023-08-01T09:35:39;19.50;99.90
75262;DHT22;63859;51.064;4.580;2023-08-01T09:38:05;19.60;99.90
75262;DHT22;63859;51.064;4.580;2023-08-01T09:40:37;19.50;99.90
75262;DHT22;63859;51.064;4.580;2023-08-01T09:43:03;19.50;99.90
75262;DHT22;63859;51.064;4.580;2023-08-01T09:45:29;19.40;99.90
75262;DHT22;63859;51.064;4.580;2023-08-01T09:47:55;19.50;99.90
75262;DHT22;63859;51.064;4.580;2023-08-01T09:50:22;19.50;99.90
75262;DHT22;63859;51.064;4.580;2023-08-01T09:52:48;19.60;99.90
75262;DHT22;63859;51.064;4.580;2023-08-01T09:55:40;19.90;99.90
75262;DHT22;63859;51.064;4.580;2023-08-01T09:58:10;20.00;99.90
75262;DHT22;63859;51.064;4.580;2023-08-01T10:00:38;19.90;99.90
75262;DHT22;63859;51.064;4.580;2023-08-01T10:03:05;19.80;99.90
75262;DHT22;63859;51.064;4.580;2023-08-01T10:05:32;19.80;99.90
75262;DHT22;63859;51.064;4.580;2023-08-01T10:08:02;19.90;99.90
75262;DHT22;63859;51.064;4.580;2023-08-01T10:10:28;20.10;99.90
75262;DHT22;63859;51.064;4.580;2023-08-01T10:12:57;20.30;99.90
75262;DHT22;63859;51.064;4.580;2023-08-01T10:15:24;20.40;99.90
75262;DHT22;63859;51.064;4.580;2023-08-01T10:17:51;20.50;99.90
75262;DHT22;63859;51.064;4.580;2023-08-01T10:20:16;20.30;99.90
75262;DHT22;63859;51.064;4.580;2023-08-01T10:22:44;20.10;99.90
75262;DHT22;63859;51.064;4.580;2023-08-01T10:25:10;20.20;99.90
75262;DHT22;63859;51.064;4.580;2023-08-01T10:27:37;20.10;99.90
75262;DHT22;63859;51.064;4.580;2023-08-01T10:30:04;20.10;99.90
75262;DHT22;63859;51.064;4.580;2023-08-01T10:32:38;20.20;99.90
75262;DHT22;63859;51.064;4.580;2023-08-01T10:35:04;20.30;99.90
75262;DHT22;63859;51.064;4.580;2023-08-01T10:37:46;20.30;99.90
75262;DHT22;63859;51.064;4.580;2023-08-01T10:40:14;20.30;99.90
75262;DHT22;63859;51.064;4.580;2023-08-01T10:42:41;20.20;99.90
75262;DHT22;63859;51.064;4.580;2023-08-01T10:45:18;20.20;99.90
75262;DHT22;63859;51.064;4.580;2023-08-01T10:47:44;20.20;99.90
75262;DHT22;63859;51.064;4.580;2023-08-01T10:50:17;20.20;99.90
75262;DHT22;63859;51.064;4.580;2023-08-01T10:52:43;20.30;99.90
75262;DHT22;63859;51.064;4.580;2023-08-01T10:55:10;20.50;99.90
75262;DHT22;63859;51.064;4.580;2023-08-01T10:57:38;20.60;99.90
75262;DHT22;63859;51.064;4.580;2023-08-01T11:00:05;20.60;99.90
75262;DHT22;63859;51.064;4.580;2023-08-01T11:02:36;20.60;99.90
75262;DHT22;63859;51.064;4.580;2023-08-01T11:05:04;20.50;99.90
75262;DHT22;63859;51.064;4.580;2023-08-01T11:07:31;20.50;99.90
75262;DHT22;63859;51.064;4.580;2023-08-01T11:10:04;20.40;99.90
75262;DHT22;63859;51.064;4.580;2023-08-01T11:12:41;20.30;99.90
75262;DHT22;63859;51.064;4.580;2023-08-01T11:15:09;20.50;99.90
75262;DHT22;63859;51.064;4.580;2023-08-01T11:17:39;20.30;99.90
75262;DHT22;63859;51.064;4.580;2023-08-01T11:20:08;20.40;99.90
75262;DHT22;63859;51.064;4.580;2023-08-01T11:22:36;20.40;99.90
75262;DHT22;63859;51.064;4.580;2023-08-01T11:25:02;20.40;99.90
75262;DHT22;63859;51.064;4.580;2023-08-01T11:27:28;20.60;99.90
75262;DHT22;63859;51.064;4.580;2023-08-01T11:29:55;20.70;99.90
75262;DHT22;63859;51.064;4.580;2023-08-01T11:32:21;20.60;99.90
75262;DHT22;63859;51.064;4.580;2023-08-01T11:34:49;20.50;99.90
75262;DHT22;63859;51.064;4.580;2023-08-01T11:37:17;20.40;99.90
75262;DHT22;63859;51.064;4.580;2023-08-01T11:39:45;20.20;99.90
75262;DHT22;63859;51.064;4.580;2023-08-01T11:42:17;20.20;99.90
75262;DHT22;63859;51.064;4.580;2023-08-01T11:44:43;20.10;99.90
75262;DHT22;63859;51.064;4.580;2023-08-01T11:47:16;20.00;99.90
75262;DHT22;63859;51.064;4.580;2023-08-01T11:49:46;20.10;99.90
75262;DHT22;63859;51.064;4.580;2023-08-01T11:52:27;20.40;99.90
75262;DHT22;63859;51.064;4.580;2023-08-01T11:54:53;20.50;99.90
75262;DHT22;63859;51.064;4.580;2023-08-01T11:57:21;20.70;99.90
75262;DHT22;63859;51.064;4.580;2023-08-01T11:59:51;20.80;99.90
75262;DHT22;63859;51.064;4.580;2023-08-01T12:02:24;20.90;99.90
75262;DHT22;63859;51.064;4.580;2023-08-01T12:04:50;20.80;99.90
75262;DHT22;63859;51.064;4.580;2023-08-01T12:07:17;20.70;99.90
75262;DHT22;63859;51.064;4.580;2023-08-01T12:09:43;20.60;99.90
75262;DHT22;63859;51.064;4.580;2023-08-01T12:12:09;20.60;99.90
75262;DHT22;63859;51.064;4.580;2023-08-01T12:14:41;20.60;99.90
75262;DHT22;63859;51.064;4.580;2023-08-01T12:17:07;20.60;99.90
75262;DHT22;63859;51.064;4.580;2023-08-01T12:19:33;20.70;99.90
75262;DHT22;63859;51.064;4.580;2023-08-01T12:22:01;21.00;99.90
75262;DHT22;63859;51.064;4.580;2023-08-01T12:24:27;21.20;99.90
75262;DHT22;63859;51.064;4.580;2023-08-01T12:26:53;21.30;99.90
75262;DHT22;63859;51.064;4.580;2023-08-01T12:29:19;21.30;99.90
75262;DHT22;63859;51.064;4.580;2023-08-01T12:31:44;21.20;99.90
75262;DHT22;63859;51.064;4.580;2023-08-01T12:34:11;21.30;99.90
75262;DHT22;63859;51.064;4.580;2023-08-01T12:36:37;21.10;99.90
75262;DHT22;63859;51.064;4.580;2023-08-01T12:39:02;21.10;99.90
75262;DHT22;63859;51.064;4.580;2023-08-01T12:41:29;20.90;99.90
75262;DHT22;63859;51.064;4.580;2023-08-01T12:43:54;20.60;99.90
75262;DHT22;63859;51.064;4.580;2023-08-01T12:46:20;20.50;99.90
75262;DHT22;63859;51.064;4.580;2023-08-01T12:48:46;20.50;99.90
75262;DHT22;63859;51.064;4.580;2023-08-01T12:51:12;20.70;99.90
75262;DHT22;63859;51.064;4.580;2023-08-01T12:53:39;20.90;99.90
75262;DHT22;63859;51.064;4.580;2023-08-01T12:56:05;21.00;99.90
75262;DHT22;63859;51.064;4.580;2023-08-01T12:58:31;21.00;99.90
75262;DHT22;63859;51.064;4.580;2023-08-01T13:00:57;21.00;99.90
75262;DHT22;63859;51.064;4.580;2023-08-01T13:03:23;21.40;99.90
75262;DHT22;63859;51.064;4.580;2023-08-01T13:05:48;21.50;99.90
75262;DHT22;63859;51.064;4.580;2023-08-01T13:08:14;21.60;99.90
75262;DHT22;63859;51.064;4.580;2023-08-01T13:10:40;21.60;99.90
75262;DHT22;63859;51.064;4.580;2023-08-01T13:13:06;21.50;99.90
75262;DHT22;63859;51.064;4.580;2023-08-01T13:15:31;21.40;99.90
75262;DHT22;63859;51.064;4.580;2023-08-01T13:17:57;21.40;99.90
75262;DHT22;63859;51.064;4.580;2023-08-01T13:20:23;21.40;99.90
75262;DHT22;63859;51.064;4.580;2023-08-01T13:22:50;21.50;99.90
75262;DHT22;63859;51.064;4.580;2023-08-01T13:25:16;21.40;99.90
75262;DHT22;63859;51.064;4.580;2023-08-01T13:27:42;21.30;99.90
75262;DHT22;63859;51.064;4.580;2023-08-01T13:30:08;21.10;99.90
75262;DHT22;63859;51.064;4.580;2023-08-01T13:32:34;20.90;99.90
75262;DHT22;63859;51.064;4.580;2023-08-01T13:35:00;20.90;99.90
75262;DHT22;63859;51.064;4.580;2023-08-01T13:37:26;20.80;99.90
75262;DHT22;63859;51.064;4.580;2023-08-01T13:39:53;21.00;99.90
75262;DHT22;63859;51.064;4.580;2023-08-01T13:42:19;21.00;99.90
75262;DHT22;63859;51.064;4.580;2023-08-01T13:44:45;21.10;99.90
75262;DHT22;63859;51.064;4.580;2023-08-01T13:47:10;21.30;99.90
75262;DHT22;63859;51.064;4.580;2023-08-01T13:49:36;21.50;99.90
75262;DHT22;63859;51.064;4.580;2023-08-01T13:52:03;21.50;99.90
75262;DHT22;63859;51.064;4.580;2023-08-01T13:54:29;21.50;99.90
75262;DHT22;63859;51.064;4.580;2023-08-01T13:56:54;21.40;99.90
75262;DHT22;63859;51.064;4.580;2023-08-01T13:59:20;21.20;99.90
75262;DHT22;63859;51.064;4.580;2023-08-01T14:01:46;21.00;99.90
75262;DHT22;63859;51.064;4.580;2023-08-01T14:04:12;21.00;99.90
75262;DHT22;63859;51.064;4.580;2023-08-01T14:06:42;20.90;99.90
75262;DHT22;63859;51.064;4.580;2023-08-01T14:09:08;21.00;99.90
75262;DHT22;63859;51.064;4.580;2023-08-01T14:11:35;21.00;99.90
75262;DHT22;63859;51.064;4.580;2023-08-01T14:14:01;21.00;99.90
75262;DHT22;63859;51.064;4.580;2023-08-01T14:16:27;20.90;99.90
75262;DHT22;63859;51.064;4.580;2023-08-01T14:18:53;20.70;99.90
75262;DHT22;63859;51.064;4.580;2023-08-01T14:21:19;20.40;99.90
75262;DHT22;63859;51.064;4.580;2023-08-01T14:23:44;20.30;99.90
75262;DHT22;63859;51.064;4.580;2023-08-01T14:26:10;20.20;99.90
75262;DHT22;63859;51.064;4.580;2023-08-01T14:28:36;20.10;99.90
75262;DHT22;63859;51.064;4.580;2023-08-01T14:31:03;20.00;99.90
75262;DHT22;63859;51.064;4.580;2023-08-01T14:33:29;19.90;99.90
75262;DHT22;63859;51.064;4.580;2023-08-01T14:35:55;19.90;99.90
75262;DHT22;63859;51.064;4.580;2023-08-01T14:38:20;19.70;99.90
75262;DHT22;63859;51.064;4.580;2023-08-01T14:40:46;19.50;99.90
75262;DHT22;63859;51.064;4.580;2023-08-01T14:43:12;19.30;99.90
75262;DHT22;63859;51.064;4.580;2023-08-01T14:45:38;19.10;99.90
75262;DHT22;63859;51.064;4.580;2023-08-01T14:48:05;18.90;99.90
75262;DHT22;63859;51.064;4.580;2023-08-01T14:50:31;18.90;99.90
75262;DHT22;63859;51.064;4.580;2023-08-01T14:52:57;18.90;99.90
75262;DHT22;63859;51.064;4.580;2023-08-01T14:55:22;18.90;99.90
75262;DHT22;63859;51.064;4.580;2023-08-01T14:57:48;19.00;99.90
75262;DHT22;63859;51.064;4.580;2023-08-01T15:00:15;19.00;99.90
75262;DHT22;63859;51.064;4.580;2023-08-01T15:02:41;19.10;99.90
75262;DHT22;63859;51.064;4.580;2023-08-01T15:05:07;19.20;99.90
75262;DHT22;63859;51.064;4.580;2023-08-01T15:07:33;19.20;99.90
75262;DHT22;63859;51.064;4.580;2023-08-01T15:09:59;19.20;99.90
75262;DHT22;63859;51.064;4.580;2023-08-01T15:12:25;19.20;99.90
75262;DHT22;63859;51.064;4.580;2023-08-01T15:14:52;19.10;99.90
75262;DHT22;63859;51.064;4.580;2023-08-01T15:17:18;19.10;99.90
75262;DHT22;63859;51.064;4.580;2023-08-01T15:19:44;19.10;99.90
75262;DHT22;63859;51.064;4.580;2023-08-01T15:22:10;19.10;99.90
75262;DHT22;63859;51.064;4.580;2023-08-01T15:24:35;19.20;99.90
75262;DHT22;63859;51.064;4.580;2023-08-01T15:27:01;19.20;99.90